sensor_id;sensor_type;location;lat;lon;timestamp;pressure;altitude;pressure_sealevel;temperature;humidity
70559;BME280;58108;48.094;11.838;2023-11-19T00:00:21;95436.66;;;2.87;100.00
70559;BME280;58108;48.094;11.838;2023-11-19T00:02:47;95431.19;;;2.93;100.00
70559;BME280;58108;48.094;11.838;2023-11-19T00:05:13;95438.91;;;2.95;100.00
70559;BME280;58108;48.094;11.838;2023-11-19T00:07:40;95444.88;;;2.95;100.00
70559;BME280;58108;48.094;11.838;2023-11-19T00:10:17;95436.59;;;2.89;100.00
70559;BME280;58108;48.094;11.838;2023-11-19T00:12:47;95443.31;;;2.93;100.00
70559;BME280;58108;48.094;11.838;2023-11-19T00:15:14;95431.88;;;2.97;100.00
70559;BME280;58108;48.094;11.838;2023-11-19T00:17:41;95441.09;;;3.03;100.00
70559;BME280;58108;48.094;11.838;2023-11-19T00:22:42;95408.69;;;2.95;100.00
70559;BME280;58108;48.094;11.838;2023-11-19T00:25:09;95404.66;;;2.90;100.00
70559;BME280;58108;48.094;11.838;2023-11-19T00:27:35;95402.75;;;2.93;100.00
70559;BME280;58108;48.094;11.838;2023-11-19T00:30:01;95397.44;;;3.14;100.00
70559;BME280;58108;48.094;11.838;2023-11-19T00:32:27;95391.06;;;3.04;100.00
70559;BME280;58108;48.094;11.838;2023-11-19T00:34:53;95383.56;;;3.15;100.00
70559;BME280;58108;48.094;11.838;2023-11-19T00:37:18;95383.19;;;3.23;100.00
70559;BME280;58108;48.094;11.838;2023-11-19T00:39:44;95381.56;;;3.38;100.00
70559;BME280;58108;48.094;11.838;2023-11-19T00:42:10;95374.88;;;3.34;100.00
70559;BME280;58108;48.094;11.838;2023-11-19T00:44:36;95381.63;;;3.36;100.00
70559;BME280;58108;48.094;11.838;2023-11-19T00:47:02;95383.53;;;3.50;100.00
70559;BME280;58108;48.094;11.838;2023-11-19T00:49:28;95379.03;;;3.54;100.00
70559;BME280;58108;48.094;11.838;2023-11-19T00:51:54;95378.34;;;3.50;100.00
70559;BME280;58108;48.094;11.838;2023-11-19T00:54:19;95379.97;;;3.35;100.00
70559;BME280;58108;48.094;11.838;2023-11-19T00:56:45;95377.13;;;3.40;100.00
70559;BME280;58108;48.094;11.838;2023-11-19T00:59:11;95373.66;;;3.57;100.00
70559;BME280;58108;48.094;11.838;2023-11-19T01:01:36;95368.06;;;3.49;100.00
70559;BME280;58108;48.094;11.838;2023-11-19T01:04:03;95379.53;;;3.61;100.00
70559;BME280;58108;48.094;11.838;2023-11-19T01:06:32;95369.41;;;3.56;100.00
70559;BME280;58108;48.094;11.838;2023-11-19T01:08:57;95376.84;;;3.62;100.00
70559;BME280;58108;48.094;11.838;2023-11-19T01:11:24;95375.63;;;3.69;100.00
70559;BME280;58108;48.094;11.838;2023-11-19T01:13:50;95372.59;;;3.77;100.00
70559;BME280;58108;48.094;11.838;2023-11-19T01:16:16;95370.28;;;3.89;100.00
70559;BME280;58108;48.094;11.838;2023-11-19T01:18:41;95364.00;;;3.93;100.00
70559;BME280;58108;48.094;11.838;2023-11-19T01:21:07;95363.53;;;4.02;100.00
70559;BME280;58108;48.094;11.838;2023-11-19T01:23:34;95365.19;;;4.03;100.00
70559;BME280;58108;48.094;11.838;2023-11-19T01:26:00;95364.59;;;3.98;100.00
70559;BME280;58108;48.094;11.838;2023-11-19T01:28:26;95356.50;;;4.04;100.00
70559;BME280;58108;48.094;11.838;2023-11-19T01:30:51;95349.72;;;4.02;100.00
70559;BME280;58108;48.094;11.838;2023-11-19T01:33:17;95344.56;;;4.02;100.00
70559;BME280;58108;48.094;11.838;2023-11-19T01:35:42;95337.19;;;3.78;100.00
70559;BME280;58108;48.094;11.838;2023-11-19T01:38:08;95343.69;;;3.69;100.00
70559;BME280;58108;48.094;11.838;2023-11-19T01:40:34;95324.50;;;3.73;100.00
70559;BME280;58108;48.094;11.838;2023-11-19T01:43:02;95332.03;;;3.78;100.00
70559;BME280;58108;48.094;11.838;2023-11-19T01:45:30;95334.25;;;3.68;100.00
70559;BME280;58108;48.094;11.838;2023-11-19T01:48:00;95328.09;;;3.71;100.00
70559;BME280;58108;48.094;11.838;2023-11-19T01:50:30;95326.34;;;3.87;100.00
70559;BME280;58108;48.094;11.838;2023-11-19T01:52:56;95337.09;;;3.95;100.00
70559;BME280;58108;48.094;11.838;2023-11-19T01:55:26;95319.16;;;3.92;100.00
70559;BME280;58108;48.094;11.838;2023-11-19T01:57:54;95322.56;;;3.93;100.00
70559;BME280;58108;48.094;11.838;2023-11-19T02:00:21;95315.47;;;3.96;100.00
70559;BME280;58108;48.094;11.838;2023-11-19T02:02:47;95305.69;;;4.02;100.00
70559;BME280;58108;48.094;11.838;2023-11-19T02:05:13;95313.53;;;4.00;100.00
70559;BME280;58108;48.094;11.838;2023-11-19T02:07:39;95312.13;;;3.94;100.00
70559;BME280;58108;48.094;11.838;2023-11-19T02:10:06;95308.28;;;4.02;100.00
70559;BME280;58108;48.094;11.838;2023-11-19T02:12:39;95313.78;;;4.12;100.00
70559;BME280;58108;48.094;11.838;2023-11-19T02:15:09;95297.81;;;4.19;100.00
70559;BME280;58108;48.094;11.838;2023-11-19T02:17:35;95293.31;;;4.23;100.00
70559;BME280;58108;48.094;11.838;2023-11-19T02:20:03;95286.44;;;4.22;100.00
70559;BME280;58108;48.094;11.838;2023-11-19T02:22:34;95281.63;;;4.16;100.00
70559;BME280;58108;48.094;11.838;2023-11-19T02:25:04;95274.97;;;4.26;100.00
70559;BME280;58108;48.094;11.838;2023-11-19T02:27:58;95267.53;;;4.36;100.00
70559;BME280;58108;48.094;11.838;2023-11-19T02:30:25;95258.47;;;4.43;100.00
70559;BME280;58108;48.094;11.838;2023-11-19T02:32:57;95250.34;;;4.49;100.00
70559;BME280;58108;48.094;11.838;2023-11-19T02:35:27;95243.38;;;4.50;100.00
70559;BME280;58108;48.094;11.838;2023-11-19T02:37:56;95241.34;;;4.55;100.00
70559;BME280;58108;48.094;11.838;2023-11-19T02:40:22;95231.16;;;4.67;100.00
70559;BME280;58108;48.094;11.838;2023-11-19T02:42:49;95236.28;;;4.68;100.00
70559;BME280;58108;48.094;11.838;2023-11-19T02:45:15;95232.03;;;4.67;100.00
70559;BME280;58108;48.094;11.838;2023-11-19T02:47:41;95236.19;;;4.70;100.00
70559;BME280;58108;48.094;11.838;2023-11-19T02:50:10;95235.38;;;4.84;100.00
70559;BME280;58108;48.094;11.838;2023-11-19T02:52:42;95234.63;;;4.82;100.00
70559;BME280;58108;48.094;11.838;2023-11-19T02:55:09;95239.53;;;5.01;100.00
70559;BME280;58108;48.094;11.838;2023-11-19T02:57:41;95230.38;;;5.10;100.00
70559;BME280;58108;48.094;11.838;2023-11-19T03:00:16;95224.63;;;5.19;100.00
70559;BME280;58108;48.094;11.838;2023-11-19T03:02:41;95212.66;;;5.16;100.00
70559;BME280;58108;48.094;11.838;2023-11-19T03:05:13;95212.38;;;5.21;100.00
70559;BME280;58108;48.094;11.838;2023-11-19T03:07:43;95207.47;;;5.16;100.00
70559;BME280;58108;48.094;11.838;2023-11-19T03:10:10;95210.72;;;5.20;100.00
70559;BME280;58108;48.094;11.838;2023-11-19T03:12:44;95208.03;;;5.22;100.00
70559;BME280;58108;48.094;11.838;2023-11-19T03:15:11;95203.19;;;5.30;100.00
70559;BME280;58108;48.094;11.838;2023-11-19T03:17:41;95196.13;;;5.32;100.00
70559;BME280;58108;48.094;11.838;2023-11-19T03:20:09;95204.28;;;5.40;100.00
70559;BME280;58108;48.094;11.838;2023-11-19T03:22:39;95196.84;;;5.48;100.00
70559;BME280;58108;48.094;11.838;2023-11-19T03:25:07;95200.06;;;5.52;100.00
70559;BME280;58108;48.094;11.838;2023-11-19T03:27:37;95200.06;;;5.52;100.00
70559;BME280;58108;48.094;11.838;2023-11-19T03:30:08;95189.22;;;5.60;100.00
70559;BME280;58108;48.094;11.838;2023-11-19T03:32:35;95193.47;;;5.61;100.00
70559;BME280;58108;48.094;11.838;2023-11-19T03:35:01;95179.25;;;5.67;100.00
70559;BME280;58108;48.094;11.838;2023-11-19T03:37:27;95188.81;;;5.66;100.00
70559;BME280;58108;48.094;11.838;2023-11-19T03:39:54;95186.81;;;5.84;100.00
70559;BME280;58108;48.094;11.838;2023-11-19T03:42:20;95183.16;;;5.87;100.00
70559;BME280;58108;48.094;11.838;2023-11-19T03:44:46;95174.00;;;5.81;100.00
70559;BME280;58108;48.094;11.838;2023-11-19T03:47:12;95179.59;;;5.75;100.00
70559;BME280;58108;48.094;11.838;2023-11-19T03:49:37;95180.03;;;5.82;100.00
70559;BME280;58108;48.094;11.838;2023-11-19T03:52:03;95179.41;;;5.78;100.00
70559;BME280;58108;48.094;11.838;2023-11-19T03:54:31;95192.44;;;5.91;100.00
70559;BME280;58108;48.094;11.838;2023-11-19T03:56:58;95191.78;;;5.87;100.00
70559;BME280;58108;48.094;11.838;2023-11-19T03:59:25;95190.94;;;5.87;100.00
70559;BME280;58108;48.094;11.838;2023-11-19T04:01:51;95189.19;;;5.87;100.00
70559;BME280;58108;48.094;11.838;2023-11-19T04:04:19;95189.09;;;5.89;100.00
70559;BME280;58108;48.094;11.838;2023-11-19T04:06:44;95185.81;;;6.00;100.00
70559;BME280;58108;48.094;11.838;2023-11-19T04:09:10;95181.66;;;5.97;100.00
70559;BME280;58108;48.094;11.838;2023-11-19T04:11:35;95188.81;;;5.94;100.00
70559;BME280;58108;48.094;11.838;2023-11-19T04:14:01;95182.03;;;5.91;100.00
70559;BME280;58108;48.094;11.838;2023-11-19T04:16:27;95186.69;;;5.86;100.00
70559;BME280;58108;48.094;11.838;2023-11-19T04:18:55;95181.09;;;5.92;100.00
70559;BME280;58108;48.094;11.838;2023-11-19T04:21:22;95194.47;;;6.13;100.00
70559;BME280;58108;48.094;11.838;2023-11-19T04:23:49;95190.88;;;6.01;100.00
70559;BME280;58108;48.094;11.838;2023-11-19T04:26:15;95193.78;;;6.24;100.00
70559;BME280;58108;48.094;11.838;2023-11-19T04:28:41;95198.97;;;6.24;100.00
70559;BME280;58108;48.094;11.838;2023-11-19T04:31:06;95192.72;;;6.14;100.00
70559;BME280;58108;48.094;11.838;2023-11-19T04:33:32;95191.78;;;6.15;100.00
70559;BME280;58108;48.094;11.838;2023-11-19T04:35:58;95190.84;;;6.16;100.00
70559;BME280;58108;48.094;11.838;2023-11-19T04:38:23;95195.13;;;6.17;100.00
70559;BME280;58108;48.094;11.838;2023-11-19T04:40:49;95189.00;;;6.18;100.00
70559;BME280;58108;48.094;11.838;2023-11-19T04:43:14;95190.69;;;6.32;100.00
70559;BME280;58108;48.094;11.838;2023-11-19T04:45:41;95192.66;;;6.41;100.00
70559;BME280;58108;48.094;11.838;2023-11-19T04:48:06;95200.06;;;6.48;100.00
70559;BME280;58108;48.094;11.838;2023-11-19T04:50:32;95200.59;;;6.53;100.00
70559;BME280;58108;48.094;11.838;2023-11-19T04:52:57;95193.81;;;6.50;100.00
70559;BME280;58108;48.094;11.838;2023-11-19T04:55:23;95195.09;;;6.57;100.00
70559;BME280;58108;48.094;11.838;2023-11-19T04:57:48;95196.44;;;6.63;100.00
70559;BME280;58108;48.094;11.838;2023-11-19T05:00:14;95196.25;;;6.66;100.00
70559;BME280;58108;48.094;11.838;2023-11-19T05:02:40;95194.13;;;6.72;100.00
70559;BME280;58108;48.094;11.838;2023-11-19T05:05:05;95195.59;;;6.76;100.00
70559;BME280;58108;48.094;11.838;2023-11-19T05:07:31;95204.03;;;6.79;100.00
70559;BME280;58108;48.094;11.838;2023-11-19T05:09:57;95205.47;;;6.83;100.00
70559;BME280;58108;48.094;11.838;2023-11-19T05:12:23;95205.28;;;7.00;100.00
70559;BME280;58108;48.094;11.838;2023-11-19T05:14:48;95213.09;;;7.00;100.00
70559;BME280;58108;48.094;11.838;2023-11-19T05:17:19;95211.41;;;7.11;100.00
70559;BME280;58108;48.094;11.838;2023-11-19T05:19:45;95209.31;;;7.17;100.00
70559;BME280;58108;48.094;11.838;2023-11-19T05:22:10;95212.41;;;7.22;100.00
70559;BME280;58108;48.094;11.838;2023-11-19T05:24:36;95213.97;;;7.24;100.00
70559;BME280;58108;48.094;11.838;2023-11-19T05:27:02;95212.22;;;7.25;100.00
70559;BME280;58108;48.094;11.838;2023-11-19T05:29:28;95215.63;;;7.38;100.00
70559;BME280;58108;48.094;11.838;2023-11-19T05:31:54;95219.34;;;7.47;100.00
70559;BME280;58108;48.094;11.838;2023-11-19T05:34:20;95223.69;;;7.60;100.00
70559;BME280;58108;48.094;11.838;2023-11-19T05:36:47;95228.75;;;7.74;100.00
70559;BME280;58108;48.094;11.838;2023-11-19T05:39:12;95234.97;;;7.85;100.00
70559;BME280;58108;48.094;11.838;2023-11-19T05:41:38;95232.03;;;7.89;100.00
70559;BME280;58108;48.094;11.838;2023-11-19T05:44:04;95235.72;;;7.87;100.00
70559;BME280;58108;48.094;11.838;2023-11-19T05:46:29;95240.25;;;7.96;100.00
70559;BME280;58108;48.094;11.838;2023-11-19T05:48:55;95224.38;;;7.99;100.00
70559;BME280;58108;48.094;11.838;2023-11-19T05:51:21;95228.94;;;8.09;100.00
70559;BME280;58108;48.094;11.838;2023-11-19T05:53:46;95237.38;;;8.12;100.00
70559;BME280;58108;48.094;11.838;2023-11-19T05:56:12;95232.88;;;8.14;100.00
70559;BME280;58108;48.094;11.838;2023-11-19T05:58:38;95231.34;;;8.23;100.00
70559;BME280;58108;48.094;11.838;2023-11-19T06:01:05;95233.97;;;8.23;100.00
70559;BME280;58108;48.094;11.838;2023-11-19T06:03:32;95233.97;;;8.23;100.00
70559;BME280;58108;48.094;11.838;2023-11-19T06:05:58;95235.66;;;8.24;100.00
70559;BME280;58108;48.094;11.838;2023-11-19T06:08:24;95236.97;;;8.30;100.00
70559;BME280;58108;48.094;11.838;2023-11-19T06:10:52;95232.13;;;8.37;100.00
70559;BME280;58108;48.094;11.838;2023-11-19T06:13:18;95230.25;;;8.39;100.00
70559;BME280;58108;48.094;11.838;2023-11-19T06:15:45;95222.28;;;8.40;100.00
70559;BME280;58108;48.094;11.838;2023-11-19T06:18:10;95216.13;;;8.41;100.00
70559;BME280;58108;48.094;11.838;2023-11-19T06:20:37;95223.59;;;8.34;100.00
70559;BME280;58108;48.094;11.838;2023-11-19T06:23:03;95216.47;;;8.37;100.00
70559;BME280;58108;48.094;11.838;2023-11-19T06:25:28;95233.47;;;8.42;100.00
70559;BME280;58108;48.094;11.838;2023-11-19T06:27:54;95240.69;;;8.39;100.00
70559;BME280;58108;48.094;11.838;2023-11-19T06:30:20;95236.38;;;8.38;100.00
70559;BME280;58108;48.094;11.838;2023-11-19T06:32:46;95231.06;;;8.39;100.00
70559;BME280;58108;48.094;11.838;2023-11-19T06:35:12;95232.28;;;8.46;100.00
70559;BME280;58108;48.094;11.838;2023-11-19T06:37:39;95224.34;;;8.48;100.00
70559;BME280;58108;48.094;11.838;2023-11-19T06:40:06;95232.38;;;8.45;100.00
70559;BME280;58108;48.094;11.838;2023-11-19T06:42:32;95219.94;;;8.48;100.00
70559;BME280;58108;48.094;11.838;2023-11-19T06:44:58;95231.97;;;8.51;100.00
70559;BME280;58108;48.094;11.838;2023-11-19T06:47:27;95240.72;;;8.50;100.00
70559;BME280;58108;48.094;11.838;2023-11-19T06:49:54;95245.22;;;8.48;100.00
70559;BME280;58108;48.094;11.838;2023-11-19T06:52:20;95243.97;;;8.54;100.00
70559;BME280;58108;48.094;11.838;2023-11-19T06:54:46;95241.09;;;8.57;100.00
70559;BME280;58108;48.094;11.838;2023-11-19T06:57:12;95236.72;;;8.57;100.00
70559;BME280;58108;48.094;11.838;2023-11-19T06:59:38;95236.63;;;8.59;100.00
70559;BME280;58108;48.094;11.838;2023-11-19T07:02:04;95241.59;;;8.62;100.00
70559;BME280;58108;48.094;11.838;2023-11-19T07:04:30;95239.25;;;8.70;100.00
70559;BME280;58108;48.094;11.838;2023-11-19T07:06:56;95243.66;;;8.70;100.00
70559;BME280;58108;48.094;11.838;2023-11-19T07:09:22;95236.28;;;8.75;100.00
70559;BME280;58108;48.094;11.838;2023-11-19T07:11:48;95247.22;;;8.80;100.00
70559;BME280;58108;48.094;11.838;2023-11-19T07:14:15;95240.44;;;8.78;100.00
70559;BME280;58108;48.094;11.838;2023-11-19T07:16:42;95254.84;;;8.83;100.00
70559;BME280;58108;48.094;11.838;2023-11-19T07:19:08;95251.28;;;8.84;100.00
70559;BME280;58108;48.094;11.838;2023-11-19T07:21:34;95254.69;;;8.85;100.00
70559;BME280;58108;48.094;11.838;2023-11-19T07:23:59;95259.56;;;8.89;100.00
70559;BME280;58108;48.094;11.838;2023-11-19T07:26:25;95261.59;;;8.86;100.00
70559;BME280;58108;48.094;11.838;2023-11-19T07:28:50;95256.97;;;8.89;100.00
70559;BME280;58108;48.094;11.838;2023-11-19T07:31:16;95263.13;;;8.88;100.00
70559;BME280;58108;48.094;11.838;2023-11-19T07:33:45;95261.03;;;8.94;100.00
70559;BME280;58108;48.094;11.838;2023-11-19T07:36:12;95254.00;;;8.94;100.00
70559;BME280;58108;48.094;11.838;2023-11-19T07:38:37;95262.94;;;8.92;100.00
70559;BME280;58108;48.094;11.838;2023-11-19T07:41:05;95268.84;;;8.94;100.00
70559;BME280;58108;48.094;11.838;2023-11-19T07:43:30;95267.78;;;8.96;100.00
70559;BME280;58108;48.094;11.838;2023-11-19T07:45:56;95283.00;;;9.02;100.00
70559;BME280;58108;48.094;11.838;2023-11-19T07:48:25;95277.53;;;9.06;100.00
70559;BME280;58108;48.094;11.838;2023-11-19T07:50:52;95290.25;;;9.10;100.00
70559;BME280;58108;48.094;11.838;2023-11-19T07:53:18;95280.41;;;9.14;100.00
70559;BME280;58108;48.094;11.838;2023-11-19T07:55:44;95288.94;;;9.16;100.00
70559;BME280;58108;48.094;11.838;2023-11-19T07:58:10;95294.16;;;9.16;100.00
70559;BME280;58108;48.094;11.838;2023-11-19T08:00:36;95287.28;;;9.15;100.00
70559;BME280;58108;48.094;11.838;2023-11-19T08:03:03;95288.94;;;9.16;100.00
70559;BME280;58108;48.094;11.838;2023-11-19T08:05:31;95293.00;;;9.20;100.00
70559;BME280;58108;48.094;11.838;2023-11-19T08:07:56;95285.16;;;9.20;100.00
70559;BME280;58108;48.094;11.838;2023-11-19T08:10:22;95292.16;;;9.20;100.00
70559;BME280;58108;48.094;11.838;2023-11-19T08:12:48;95286.94;;;9.20;100.00
70559;BME280;58108;48.094;11.838;2023-11-19T08:15:14;95290.50;;;9.19;100.00
70559;BME280;58108;48.094;11.838;2023-11-19T08:17:41;95293.00;;;9.20;100.00
70559;BME280;58108;48.094;11.838;2023-11-19T08:20:09;95290.13;;;9.23;100.00
70559;BME280;58108;48.094;11.838;2023-11-19T08:22:37;95292.63;;;9.25;100.00
70559;BME280;58108;48.094;11.838;2023-11-19T08:25:07;95286.34;;;9.27;100.00
70559;BME280;58108;48.094;11.838;2023-11-19T08:27:33;95288.00;;;9.28;100.00
70559;BME280;58108;48.094;11.838;2023-11-19T08:29:59;95292.06;;;9.33;100.00
70559;BME280;58108;48.094;11.838;2023-11-19T08:32:25;95292.41;;;9.39;100.00
70559;BME280;58108;48.094;11.838;2023-11-19T08:34:51;95299.75;;;9.34;100.00
70559;BME280;58108;48.094;11.838;2023-11-19T08:37:17;95298.59;;;9.38;100.00
70559;BME280;58108;48.094;11.838;2023-11-19T08:39:47;95301.22;;;9.38;100.00
70559;BME280;58108;48.094;11.838;2023-11-19T08:42:12;95305.84;;;9.35;100.00
70559;BME280;58108;48.094;11.838;2023-11-19T08:44:38;95306.44;;;9.38;100.00
70559;BME280;58108;48.094;11.838;2023-11-19T08:47:04;95299.09;;;9.43;100.00
70559;BME280;58108;48.094;11.838;2023-11-19T08:49:30;95305.47;;;9.39;100.00
70559;BME280;58108;48.094;11.838;2023-11-19T08:51:55;95301.91;;;9.40;100.00
70559;BME280;58108;48.094;11.838;2023-11-19T08:54:21;95304.41;;;9.42;100.00
70559;BME280;58108;48.094;11.838;2023-11-19T08:56:48;95308.00;;;9.41;100.00
70559;BME280;58108;48.094;11.838;2023-11-19T08:59:13;95302.63;;;9.42;100.00
70559;BME280;58108;48.094;11.838;2023-11-19T09:01:40;95307.75;;;9.44;100.00
70559;BME280;58108;48.094;11.838;2023-11-19T09:04:06;95298.13;;;9.44;100.00
70559;BME280;58108;48.094;11.838;2023-11-19T09:06:32;95303.94;;;9.48;100.00
70559;BME280;58108;48.094;11.838;2023-11-19T09:08:58;95307.97;;;9.52;100.00
70559;BME280;58108;48.094;11.838;2023-11-19T09:11:27;95306.44;;;9.61;100.00
70559;BME280;58108;48.094;11.838;2023-11-19T09:13:53;95289.81;;;9.62;100.00
70559;BME280;58108;48.094;11.838;2023-11-19T09:16:18;95298.25;;;9.66;100.00
70559;BME280;58108;48.094;11.838;2023-11-19T09:18:44;95305.13;;;9.67;100.00
70559;BME280;58108;48.094;11.838;2023-11-19T09:21:12;95306.66;;;9.69;100.00
70559;BME280;58108;48.094;11.838;2023-11-19T09:23:38;95305.38;;;9.64;100.00
70559;BME280;58108;48.094;11.838;2023-11-19T09:26:05;95308.22;;;9.72;100.00
70559;BME280;58108;48.094;11.838;2023-11-19T09:28:31;95311.31;;;9.77;100.00
70559;BME280;58108;48.094;11.838;2023-11-19T09:30:57;95307.59;;;9.80;100.00
70559;BME280;58108;48.094;11.838;2023-11-19T09:33:24;95305.72;;;9.82;100.00
70559;BME280;58108;48.094;11.838;2023-11-19T09:35:50;95303.81;;;9.84;100.00
70559;BME280;58108;48.094;11.838;2023-11-19T09:38:16;95306.91;;;9.89;100.00
70559;BME280;58108;48.094;11.838;2023-11-19T09:40:42;95317.00;;;9.94;100.00
70559;BME280;58108;48.094;11.838;2023-11-19T09:43:07;95317.00;;;9.94;100.00
70559;BME280;58108;48.094;11.838;2023-11-19T09:45:46;95322.94;;;9.96;100.00
70559;BME280;58108;48.094;11.838;2023-11-19T09:48:16;95317.59;;;9.97;100.00
70559;BME280;58108;48.094;11.838;2023-11-19T09:50:42;95319.00;;;10.02;100.00
70559;BME280;58108;48.094;11.838;2023-11-19T09:53:07;95312.59;;;10.06;100.00
70559;BME280;58108;48.094;11.838;2023-11-19T09:55:33;95305.31;;;10.09;100.00
70559;BME280;58108;48.094;11.838;2023-11-19T09:58:00;95305.91;;;10.13;100.00
70559;BME280;58108;48.094;11.838;2023-11-19T10:00:27;95307.94;;;10.09;100.00
70559;BME280;58108;48.094;11.838;2023-11-19T10:02:53;95301.03;;;10.08;100.00
70559;BME280;58108;48.094;11.838;2023-11-19T10:05:22;95308.41;;;10.15;100.00
70559;BME280;58108;48.094;11.838;2023-11-19T10:07:49;95301.38;;;10.26;100.00
70559;BME280;58108;48.094;11.838;2023-11-19T10:10:15;95301.47;;;10.25;100.00
70559;BME280;58108;48.094;11.838;2023-11-19T10:12:47;95293.56;;;10.36;100.00
70559;BME280;58108;48.094;11.838;2023-11-19T10:15:23;95289.31;;;10.47;100.00
70559;BME280;58108;48.094;11.838;2023-11-19T10:17:56;95279.63;;;10.59;100.00
70559;BME280;58108;48.094;11.838;2023-11-19T10:20:22;95279.38;;;10.83;100.00
70559;BME280;58108;48.094;11.838;2023-11-19T10:22:47;95275.63;;;10.76;100.00
70559;BME280;58108;48.094;11.838;2023-11-19T10:25:26;95270.75;;;10.71;100.00
70559;BME280;58108;48.094;11.838;2023-11-19T10:27:52;95268.19;;;10.81;100.00
70559;BME280;58108;48.094;11.838;2023-11-19T10:30:22;95273.06;;;10.86;100.00
70559;BME280;58108;48.094;11.838;2023-11-19T10:35:33;95267.28;;;10.92;100.00
70559;BME280;58108;48.094;11.838;2023-11-19T10:38:00;95261.81;;;10.95;100.00
70559;BME280;58108;48.094;11.838;2023-11-19T10:40:39;95250.56;;;11.04;100.00
70559;BME280;58108;48.094;11.838;2023-11-19T10:43:08;95256.25;;;11.10;100.00
70559;BME280;58108;48.094;11.838;2023-11-19T10:45:35;95252.09;;;11.38;100.00
70559;BME280;58108;48.094;11.838;2023-11-19T10:48:02;95246.56;;;11.31;100.00
70559;BME280;58108;48.094;11.838;2023-11-19T10:50:30;95240.81;;;11.47;100.00
70559;BME280;58108;48.094;11.838;2023-11-19T10:52:57;95243.22;;;11.60;100.00
70559;BME280;58108;48.094;11.838;2023-11-19T10:55:33;95246.09;;;11.57;100.00
70559;BME280;58108;48.094;11.838;2023-11-19T10:58:07;95236.63;;;11.76;100.00
70559;BME280;58108;48.094;11.838;2023-11-19T11:00:46;95236.63;;;11.86;100.00
70559;BME280;58108;48.094;11.838;2023-11-19T11:03:17;95241.09;;;11.95;100.00
70559;BME280;58108;48.094;11.838;2023-11-19T11:05:46;95237.06;;;11.91;100.00
70559;BME280;58108;48.094;11.838;2023-11-19T11:08:13;95225.53;;;12.03;100.00
70559;BME280;58108;48.094;11.838;2023-11-19T11:10:48;95222.41;;;11.79;100.00
70559;BME280;58108;48.094;11.838;2023-11-19T11:13:18;95231.25;;;11.77;100.00
70559;BME280;58108;48.094;11.838;2023-11-19T11:15:44;95222.94;;;11.62;100.00
70559;BME280;58108;48.094;11.838;2023-11-19T11:18:12;95229.75;;;11.85;100.00
70559;BME280;58108;48.094;11.838;2023-11-19T11:20:39;95234.28;;;11.73;100.00
70559;BME280;58108;48.094;11.838;2023-11-19T11:25:50;95227.53;;;11.80;100.00
70559;BME280;58108;48.094;11.838;2023-11-19T11:28:37;95214.66;;;11.67;100.00
70559;BME280;58108;48.094;11.838;2023-11-19T11:33:55;95212.91;;;11.87;100.00
70559;BME280;58108;48.094;11.838;2023-11-19T11:36:24;95218.69;;;11.81;100.00
70559;BME280;58108;48.094;11.838;2023-11-19T11:38:51;95218.59;;;11.93;100.00
70559;BME280;58108;48.094;11.838;2023-11-19T11:41:20;95227.44;;;12.01;100.00
70559;BME280;58108;48.094;11.838;2023-11-19T11:43:50;95227.31;;;12.03;100.00
70559;BME280;58108;48.094;11.838;2023-11-19T11:49:05;95223.97;;;12.01;100.00
70559;BME280;58108;48.094;11.838;2023-11-19T11:54:10;95208.28;;;13.08;94.78
70559;BME280;58108;48.094;11.838;2023-11-19T11:56:39;95210.59;;;12.73;95.33
70559;BME280;58108;48.094;11.838;2023-11-19T11:59:17;95206.19;;;12.54;95.58
70559;BME280;58108;48.094;11.838;2023-11-19T12:01:57;95205.22;;;12.75;95.53
70559;BME280;58108;48.094;11.838;2023-11-19T12:04:26;95202.97;;;12.80;94.53
70559;BME280;58108;48.094;11.838;2023-11-19T12:07:06;95198.41;;;12.92;94.69
70559;BME280;58108;48.094;11.838;2023-11-19T12:09:32;95202.00;;;12.81;95.38
70559;BME280;58108;48.094;11.838;2023-11-19T12:20:05;95209.66;;;14.06;87.86
70559;BME280;58108;48.094;11.838;2023-11-19T12:22:41;95191.63;;;13.27;90.02
70559;BME280;58108;48.094;11.838;2023-11-19T12:25:08;95204.50;;;13.86;86.91
70559;BME280;58108;48.094;11.838;2023-11-19T12:27:35;95203.16;;;13.16;89.49
70559;BME280;58108;48.094;11.838;2023-11-19T12:30:02;95187.28;;;12.98;91.81
70559;BME280;58108;48.094;11.838;2023-11-19T12:32:43;95198.09;;;12.95;90.18
70559;BME280;58108;48.094;11.838;2023-11-19T12:35:10;95180.81;;;12.92;91.13
70559;BME280;58108;48.094;11.838;2023-11-19T12:37:43;95184.81;;;12.96;89.35
70559;BME280;58108;48.094;11.838;2023-11-19T12:40:15;95199.06;;;13.04;90.96
70559;BME280;58108;48.094;11.838;2023-11-19T12:42:46;95181.94;;;12.80;89.77
70559;BME280;58108;48.094;11.838;2023-11-19T12:45:12;95184.06;;;12.56;87.98
70559;BME280;58108;48.094;11.838;2023-11-19T12:47:38;95179.66;;;12.47;89.77
70559;BME280;58108;48.094;11.838;2023-11-19T12:50:05;95174.25;;;12.49;91.19
70559;BME280;58108;48.094;11.838;2023-11-19T12:52:32;95178.28;;;12.33;89.17
70559;BME280;58108;48.094;11.838;2023-11-19T12:54:59;95159.91;;;12.33;90.71
70559;BME280;58108;48.094;11.838;2023-11-19T12:57:41;95183.75;;;13.17;84.67
70559;BME280;58108;48.094;11.838;2023-11-19T13:00:18;95165.88;;;12.93;86.63
70559;BME280;58108;48.094;11.838;2023-11-19T13:02:51;95168.56;;;12.73;88.56
70559;BME280;58108;48.094;11.838;2023-11-19T13:05:27;95161.53;;;12.54;91.77
70559;BME280;58108;48.094;11.838;2023-11-19T13:10:26;95159.91;;;12.33;92.18
70559;BME280;58108;48.094;11.838;2023-11-19T13:13:08;95156.03;;;12.27;90.23
70559;BME280;58108;48.094;11.838;2023-11-19T13:15:35;95151.06;;;12.34;89.51